Sebewaing, Michigan
Current Conditions -  °F | °C
As of 1:35 PM on Saturday 20 Dec 2014 (Local Time) from KCFS Reporting Station
Overcast Overcast  
Wind Chill: -1°   Ceiling: 2300
Heat Index: -1°   Visibility: 10mi
Dew Point: -6°   Wind: 0mph
Humidity: 69%   Direction: NA
Pressure: 30.26"   Gusts: NA
Location:  43.73°N, 83.45°W
Report Text: KCFS 201835Z AUTO 00000KT 10SM OVC023 M01/M06 A3026 RMK AO2 T10071057
Loading
Personal Weather Stations






























Interactive Weather Map New forecast layout! Learn more

10-Day Weather Forecast

Advertisements
Track Severe Weather on mobile